Time;durP1;ratioP1;P1;durP2;ratioP2;P2;SDS_P1;SDS_P2;PMS_P1;PMS_P2;Temp;Humidity;BMP_temperature;BMP_pressure;BME280_temperature;BME280_humidity;BME280_pressure;Samples;Min_cycle;Max_cycle;Signal;HPM_P1;HPM_P2
2021/01/14 00:00:47;;;;;;;1.23;1.13;;;;;;;10.51;100.00;101817.84;1874679;76;26283;-74
2021/01/14 00:03:18;;;;;;;1.10;0.90;;;;;;;10.50;100.00;101823.95;1874701;76;26208;-77
2021/01/14 00:05:48;;;;;;;2.60;1.20;;;;;;;10.52;100.00;101819.53;1873791;76;26290;-74
2021/01/14 00:08:18;;;;;;;2.37;1.23;;;;;;;10.48;100.00;101819.19;1872329;74;26746;-75
2021/01/14 00:10:48;;;;;;;2.07;1.00;;;;;;;10.49;100.00;101811.70;1874795;76;26284;-75
2021/01/14 00:13:19;;;;;;;2.57;1.00;;;;;;;10.58;100.00;101810.67;1874534;76;26228;-75
2021/01/14 00:15:49;;;;;;;2.63;1.27;;;;;;;10.51;100.00;101809.52;1874856;76;26286;-75
2021/01/14 00:18:19;;;;;;;2.23;1.40;;;;;;;10.55;100.00;101812.60;1874756;76;26295;-76
2021/01/14 00:20:51;;;;;;;2.33;1.20;;;;;;;10.49;100.00;101797.81;1874504;76;26219;-76
2021/01/14 00:23:22;;;;;;;2.30;1.30;;;;;;;10.47;100.00;101799.48;1874302;76;26263;-76
2021/01/14 00:25:52;;;;;;;3.63;1.17;;;;;;;10.56;100.00;101799.01;1874652;76;26262;-75
2021/01/14 00:28:24;;;;;;;1.10;1.00;;;;;;;10.55;100.00;101796.77;1874877;76;26721;-76
2021/01/14 00:30:53;;;;;;;1.70;1.20;;;;;;;10.55;100.00;101790.38;1874900;76;26270;-75
2021/01/14 00:33:23;;;;;;;2.27;1.27;;;;;;;10.59;100.00;101786.81;1874821;76;26316;-75
2021/01/14 00:35:53;;;;;;;1.37;1.27;;;;;;;10.56;100.00;101789.28;1874738;76;26599;-75
2021/01/14 00:38:23;;;;;;;1.23;1.13;;;;;;;10.61;100.00;101786.56;1874724;76;26313;-75
2021/01/14 00:40:53;;;;;;;3.30;1.40;;;;;;;10.49;100.00;101761.15;1874771;76;26274;-75
2021/01/14 00:43:23;;;;;;;1.83;1.17;;;;;;;10.62;100.00;101779.33;1874979;76;26269;-75
2021/01/14 00:45:53;;;;;;;1.47;0.90;;;;;;;10.57;100.00;101784.83;1874822;76;26204;-75
2021/01/14 00:48:22;;;;;;;1.13;1.07;;;;;;;10.56;100.00;101772.06;1874925;76;26259;-76
2021/01/14 00:50:52;;;;;;;1.23;1.13;;;;;;;10.57;100.00;101775.11;1874750;76;26184;-75
2021/01/14 00:53:22;;;;;;;2.57;1.30;;;;;;;10.56;100.00;101769.28;1874551;76;26204;-75
2021/01/14 00:55:52;;;;;;;2.33;1.20;;;;;;;10.60;100.00;101773.22;1874587;76;26204;-75
2021/01/14 00:58:22;;;;;;;1.20;1.10;;;;;;;10.59;100.00;101773.47;1874549;76;26197;-75
2021/01/14 01:00:52;;;;;;;1.10;1.00;;;;;;;10.56;100.00;101770.67;1874595;76;26764;-74
2021/01/14 01:03:22;;;;;;;2.17;1.00;;;;;;;10.62;100.00;101774.32;1874518;76;26217;-75
2021/01/14 01:05:52;;;;;;;1.60;1.20;;;;;;;10.60;100.00;101765.43;1874604;76;26298;-76
2021/01/14 01:08:22;;;;;;;1.37;1.10;;;;;;;10.60;100.00;101766.27;1874612;75;26704;-75
2021/01/14 01:10:52;;;;;;;1.80;1.20;;;;;;;10.60;100.00;101769.05;1877741;76;26655;-76
2021/01/14 01:13:22;;;;;;;2.17;1.23;;;;;;;10.62;100.00;101758.49;1876537;76;26728;-76
2021/01/14 01:15:52;;;;;;;1.33;1.20;;;;;;;10.57;100.00;101757.05;1874609;76;26196;-77
2021/01/14 01:18:22;;;;;;;1.30;1.20;;;;;;;10.57;100.00;101754.27;1874693;76;26204;-75
2021/01/14 01:20:52;;;;;;;2.53;1.30;;;;;;;10.56;100.00;101748.45;1874659;76;26217;-75
2021/01/14 01:23:22;;;;;;;1.20;1.10;;;;;;;10.61;100.00;101754.03;1874662;76;26246;-76
2021/01/14 01:25:52;;;;;;;1.40;1.30;;;;;;;10.62;100.00;101752.94;1874842;76;26722;-77
2021/01/14 01:28:22;;;;;;;1.40;1.30;;;;;;;10.60;100.00;101748.21;1874720;76;26289;-76
2021/01/14 01:30:51;;;;;;;1.53;1.30;;;;;;;10.67;100.00;101760.48;1874872;76;26655;-77
2021/01/14 01:33:22;;;;;;;3.23;1.23;;;;;;;10.55;100.00;101756.49;1874892;76;26204;-77
2021/01/14 01:35:52;;;;;;;3.03;1.40;;;;;;;10.56;100.00;101755.94;1874742;76;26262;-76
2021/01/14 01:38:26;;;;;;;2.37;1.33;;;;;;;10.58;100.00;101751.78;1874891;76;26204;-76
2021/01/14 01:40:59;;;;;;;2.13;1.00;;;;;;;10.58;100.00;101748.17;1874924;76;26216;-75
2021/01/14 01:43:29;;;;;;;3.63;1.30;;;;;;;10.55;100.00;101743.98;1874742;76;26212;-76
2021/01/14 01:46:00;;;;;;;1.87;1.20;;;;;;;10.59;100.00;101735.96;1874738;76;26218;-75
2021/01/14 01:48:32;;;;;;;2.30;1.30;;;;;;;10.58;100.00;101742.61;1874784;76;26236;-75
2021/01/14 01:51:02;;;;;;;1.40;1.30;;;;;;;10.53;100.00;101739.23;1874571;76;26628;-76
2021/01/14 01:53:32;;;;;;;2.40;1.30;;;;;;;10.61;100.00;101738.75;1874609;76;26286;-76
2021/01/14 01:56:03;;;;;;;1.30;1.20;;;;;;;10.58;100.00;101732.89;1874483;76;26266;-75
2021/01/14 01:58:36;;;;;;;2.00;1.53;;;;;;;10.61;100.00;101739.33;1874541;76;26299;-75
2021/01/14 02:01:05;;;;;;;2.10;1.50;;;;;;;10.58;100.00;101739.28;1874687;76;26263;-75
2021/01/14 02:03:35;;;;;;;1.47;1.37;;;;;;;10.58;100.00;101739.83;1874622;76;26243;-75
2021/01/14 02:06:10;;;;;;;1.40;1.30;;;;;;;10.62;100.00;101743.21;1874626;76;26337;-75
2021/01/14 02:08:42;;;;;;;1.60;1.50;;;;;;;10.61;100.00;101735.16;1874079;73;26789;-75
2021/01/14 02:11:15;;;;;;;1.30;1.20;;;;;;;10.63;100.00;101739.34;1874692;76;26266;-75
2021/01/14 02:13:54;;;;;;;1.60;1.40;;;;;;;10.63;100.00;101735.72;1839343;78;26791;-74
2021/01/14 02:16:25;;;;;;;2.17;1.30;;;;;;;10.61;100.00;101730.41;1872319;76;26233;-75
2021/01/14 02:18:58;;;;;;;1.50;1.40;;;;;;;10.67;100.00;101727.98;1869022;77;26244;-75
2021/01/14 02:21:30;;;;;;;1.47;1.37;;;;;;;10.68;100.00;101727.44;1868830;77;26220;-75
2021/01/14 02:24:06;;;;;;;1.50;1.40;;;;;;;10.67;100.00;101715.48;1868857;77;26317;-75
2021/01/14 02:26:37;;;;;;;1.83;1.40;;;;;;;10.61;100.00;101714.33;1867481;76;26333;-75
2021/01/14 02:29:07;;;;;;;1.53;1.43;;;;;;;10.71;100.00;101718.56;1868943;77;26290;-75
2021/01/14 02:31:37;;;;;;;1.70;1.20;;;;;;;10.69;100.00;101715.22;1869143;77;26212;-75
2021/01/14 02:34:07;;;;;;;1.50;1.10;;;;;;;10.65;100.00;101712.14;1869222;77;26266;-75
2021/01/14 02:36:36;;;;;;;5.43;1.40;;;;;;;10.67;100.00;101715.48;1869196;77;26287;-75
2021/01/14 02:39:06;;;;;;;2.53;1.50;;;;;;;10.60;100.00;101709.86;1869092;77;26212;-75
2021/01/14 02:41:36;;;;;;;1.70;1.60;;;;;;;10.63;100.00;101710.17;1868898;77;26228;-75
2021/01/14 02:44:07;;;;;;;1.93;1.17;;;;;;;10.71;100.00;101709.67;1868824;77;26287;-75
2021/01/14 02:46:38;;;;;;;2.07;1.10;;;;;;;10.62;100.00;101698.76;1868827;77;26224;-76
2021/01/14 02:49:09;;;;;;;2.43;1.07;;;;;;;10.68;100.00;101699.10;1868913;77;26286;-76
2021/01/14 02:51:45;;;;;;;1.50;1.10;;;;;;;10.63;100.00;101696.27;1868918;77;26279;-75
2021/01/14 02:54:17;;;;;;;1.60;1.07;;;;;;;10.67;100.00;101691.02;1868810;77;26682;-75
2021/01/14 02:56:49;;;;;;;1.17;1.07;;;;;;;10.65;100.00;101689.08;1868816;77;26274;-75
2021/01/14 02:59:19;;;;;;;1.40;1.20;;;;;;;10.63;100.00;101688.48;1868894;77;26660;-76
2021/01/14 03:01:50;;;;;;;1.70;1.43;;;;;;;10.67;100.00;101685.46;1868814;77;26298;-75
2021/01/14 03:04:19;;;;;;;3.50;1.20;;;;;;;10.70;100.00;101682.98;1868810;77;26274;-75
2021/01/14 03:06:49;;;;;;;2.17;1.30;;;;;;;10.67;100.00;101677.13;1868842;77;26295;-77
2021/01/14 03:09:19;;;;;;;1.63;1.30;;;;;;;10.71;100.00;101672.71;1871939;73;26264;-76
2021/01/14 03:11:49;;;;;;;2.27;1.20;;;;;;;10.72;100.00;101673.84;1869460;77;26675;-76
2021/01/14 03:14:19;;;;;;;2.43;1.07;;;;;;;10.71;100.00;101676.33;1868923;77;26648;-75
2021/01/14 03:16:49;;;;;;;1.93;0.93;;;;;;;10.62;100.00;101672.36;1868901;77;26198;-75
2021/01/14 03:19:19;;;;;;;2.33;1.10;;;;;;;10.66;100.00;101675.44;1868798;77;26206;-75
2021/01/14 03:21:48;;;;;;;2.83;1.20;;;;;;;10.73;100.00;101668.58;1868800;77;26212;-75
2021/01/14 03:24:18;;;;;;;1.77;0.90;;;;;;;10.67;100.00;101668.23;1868787;77;26232;-75
2021/01/14 03:26:48;;;;;;;1.93;1.20;;;;;;;10.69;100.00;101667.44;1868775;77;26204;-76
2021/01/14 03:29:18;;;;;;;2.17;1.10;;;;;;;10.71;100.00;101658.27;1868844;77;26657;-76
2021/01/14 03:31:48;;;;;;;2.27;1.37;;;;;;;10.72;100.00;101657.17;1868890;77;26204;-76
2021/01/14 03:34:17;;;;;;;1.93;1.10;;;;;;;10.68;100.00;101655.19;1868870;77;26204;-76
2021/01/14 03:36:57;;;;;;;2.80;1.07;;;;;;;10.69;100.00;101653.55;1868924;77;26255;-76
2021/01/14 03:39:28;;;;;;;2.30;1.33;;;;;;;10.61;100.00;101654.59;1868779;77;26663;-76
2021/01/14 03:41:59;;;;;;;1.83;0.97;;;;;;;10.76;100.00;101654.14;1868760;77;26745;-75
2021/01/14 03:44:30;;;;;;;2.20;1.00;;;;;;;10.70;100.00;101649.64;1868803;77;26648;-76
2021/01/14 03:47:00;;;;;;;1.63;1.17;;;;;;;10.68;100.00;101646.30;1868851;77;26271;-76
2021/01/14 03:49:30;;;;;;;4.37;1.47;;;;;;;10.61;100.00;101640.12;1868856;77;26201;-76
2021/01/14 03:51:59;;;;;;;1.73;1.27;;;;;;;10.63;100.00;101644.88;1868875;77;26287;-76
2021/01/14 03:54:29;;;;;;;2.60;1.57;;;;;;;10.69;100.00;101644.38;1868886;77;26645;-77
2021/01/14 03:56:59;;;;;;;2.27;1.30;;;;;;;10.76;100.00;101640.80;1868828;77;26213;-76
2021/01/14 03:59:29;;;;;;;2.87;1.30;;;;;;;10.71;100.00;101644.38;1868800;77;26204;-76
2021/01/14 04:02:06;;;;;;;2.63;1.50;;;;;;;10.72;100.00;101633.55;1870086;77;26671;-77
2021/01/14 04:04:34;;;;;;;2.30;1.80;;;;;;;10.75;100.00;101633.55;1868485;76;26283;-76
2021/01/14 04:07:07;;;;;;;3.53;1.50;;;;;;;10.62;100.00;101633.47;1868893;77;26209;-76
2021/01/14 04:09:38;;;;;;;2.40;1.63;;;;;;;10.61;100.00;101628.20;1860627;75;26322;-76
2021/01/14 04:12:09;;;;;;;1.70;1.60;;;;;;;10.59;100.00;101627.06;1865391;77;26303;-76
2021/01/14 04:14:39;;;;;;;2.07;1.57;;;;;;;10.56;100.00;101626.77;1868771;77;26212;-76
2021/01/14 04:17:09;;;;;;;2.73;1.60;;;;;;;10.63;100.00;101617.09;1868823;77;26271;-76
2021/01/14 04:19:39;;;;;;;1.80;1.53;;;;;;;10.65;100.00;101616.83;1868792;77;26216;-76
2021/01/14 04:22:10;;;;;;;3.60;1.60;;;;;;;10.66;100.00;101614.31;1868764;77;26664;-76
2021/01/14 04:24:40;;;;;;;1.90;1.63;;;;;;;10.77;100.00;101611.91;1868782;77;26680;-76
2021/01/14 04:27:10;;;;;;;2.57;1.70;;;;;;;10.68;100.00;101614.91;1868762;77;26208;-76
2021/01/14 04:29:40;;;;;;;1.70;1.60;;;;;;;10.67;100.00;101607.66;1868767;77;26279;-75
2021/01/14 04:32:09;;;;;;;1.80;1.70;;;;;;;10.68;100.00;101610.19;1868827;77;26212;-76
2021/01/14 04:34:39;;;;;;;1.57;1.47;;;;;;;10.75;100.00;101602.98;1868836;77;26205;-76
2021/01/14 04:37:09;;;;;;;2.47;1.53;;;;;;;10.74;100.00;101596.59;1868802;77;26193;-76
2021/01/14 04:39:39;;;;;;;2.37;1.73;;;;;;;10.69;100.00;101591.58;1868700;77;26755;-76
2021/01/14 04:42:11;;;;;;;3.00;1.70;;;;;;;10.62;100.00;101590.95;1868735;77;26200;-76
2021/01/14 04:44:41;;;;;;;1.93;1.70;;;;;;;10.59;100.00;101586.78;1868876;77;26216;-76
2021/01/14 04:47:15;;;;;;;2.20;2.00;;;;;;;10.57;100.00;101586.19;1868892;77;26737;-77
2021/01/14 04:49:45;;;;;;;1.70;1.60;;;;;;;10.66;100.00;101587.92;1868818;77;26209;-77
2021/01/14 04:52:17;;;;;;;4.53;2.33;;;;;;;10.58;100.00;101575.92;1868759;77;26640;-76
2021/01/14 04:54:48;;;;;;;2.90;2.27;;;;;;;10.57;100.00;101572.89;1868844;77;26209;-76
2021/01/14 04:57:21;;;;;;;3.30;2.20;;;;;;;10.57;100.00;101578.44;1868879;77;26754;-75
2021/01/14 04:59:53;;;;;;;2.67;2.30;;;;;;;10.60;100.00;101564.00;1839358;78;26231;-75
2021/01/14 05:02:25;;;;;;;4.43;2.60;;;;;;;10.59;100.00;101562.33;1886163;75;930836;-76
2021/01/14 05:04:57;;;;;;;2.80;2.60;;;;;;;10.56;100.00;101566.48;1886160;76;26197;-75
2021/01/14 05:07:34;;;;;;;4.33;3.43;;;;;;;10.53;100.00;101561.99;1885665;75;26272;-76
2021/01/14 05:10:06;;;;;;;4.33;2.90;;;;;;;10.58;100.00;101555.93;1883938;74;26249;-76
2021/01/14 05:12:37;;;;;;;4.30;3.13;;;;;;;10.55;100.00;101554.24;1846987;76;26648;-75
2021/01/14 05:15:10;;;;;;;4.80;3.33;;;;;;;10.58;100.00;101544.81;1873901;76;26252;-76
2021/01/14 05:17:40;;;;;;;4.03;3.23;;;;;;;10.53;100.00;101539.77;1886227;76;26197;-76
2021/01/14 05:20:11;;;;;;;5.10;3.27;;;;;;;10.54;100.00;101538.13;1886274;76;26633;-76
2021/01/14 05:22:42;;;;;;;3.70;3.13;;;;;;;10.58;100.00;101532.86;1886203;76;26286;-76
2021/01/14 05:25:13;;;;;;;5.33;4.20;;;;;;;10.57;100.00;101531.22;1886201;75;26217;-76
2021/01/14 05:27:43;;;;;;;4.00;3.43;;;;;;;10.60;100.00;101527.89;1886238;76;26664;-76
2021/01/14 05:30:15;;;;;;;4.97;3.80;;;;;;;10.56;100.00;101525.37;1886319;76;26205;-75
2021/01/14 05:32:46;;;;;;;5.10;3.30;;;;;;;10.56;100.00;101520.66;1886256;76;26652;-76
2021/01/14 05:35:19;;;;;;;5.50;3.67;;;;;;;10.53;100.00;101520.33;1886196;76;26194;-76
2021/01/14 05:37:49;;;;;;;5.73;3.47;;;;;;;10.59;100.00;101511.77;1884932;76;26210;-75
2021/01/14 05:40:25;;;;;;;5.77;4.10;;;;;;;10.62;100.00;101512.61;1886250;76;26676;-75
2021/01/14 05:43:04;;;;;;;6.17;4.63;;;;;;;10.60;100.00;101513.45;1886173;76;26213;-77
2021/01/14 05:45:35;;;;;;;4.50;3.43;;;;;;;10.55;100.00;101504.24;1886204;76;26252;-75
2021/01/14 05:48:13;;;;;;;6.83;3.80;;;;;;;10.58;100.00;101505.92;1886222;76;26718;-75
2021/01/14 05:50:46;;;;;;;5.37;3.53;;;;;;;10.50;100.00;101503.66;1886342;76;26193;-75
2021/01/14 05:53:18;;;;;;;4.80;3.40;;;;;;;10.47;100.00;101495.32;1886461;76;26656;-75
2021/01/14 05:55:50;;;;;;;4.47;3.17;;;;;;;10.52;100.00;101499.23;1886347;76;26998;-75
2021/01/14 05:58:21;;;;;;;5.67;2.90;;;;;;;10.59;100.00;101490.94;1886518;76;26262;-75
2021/01/14 06:00:51;;;;;;;3.17;2.87;;;;;;;10.54;100.00;101494.23;1886241;76;26259;-75
2021/01/14 06:03:29;;;;;;;5.83;3.27;;;;;;;10.56;100.00;101490.09;1886234;76;26351;-75
2021/01/14 06:06:00;;;;;;;3.43;2.73;;;;;;;10.60;100.00;101484.28;1886558;76;26279;-75
2021/01/14 06:08:30;;;;;;;6.13;3.23;;;;;;;10.58;100.00;101480.92;1886500;76;26270;-76
2021/01/14 06:11:00;;;;;;;4.27;3.27;;;;;;;10.65;100.00;101477.91;1886416;75;26342;-76
2021/01/14 06:13:40;;;;;;;5.07;3.60;;;;;;;10.63;100.00;101474.01;1886498;76;26652;-76
2021/01/14 06:16:11;;;;;;;5.53;3.57;;;;;;;10.56;100.00;101465.64;1886468;76;26209;-76
2021/01/14 06:18:42;;;;;;;5.17;3.60;;;;;;;10.53;100.00;101462.83;1886480;76;26257;-76
2021/01/14 06:21:11;;;;;;;7.73;4.00;;;;;;;10.62;100.00;101461.77;1886485;76;26201;-76
2021/01/14 06:23:48;;;;;;;7.00;3.30;;;;;;;10.56;100.00;101462.31;1886366;76;26343;-76
2021/01/14 06:26:30;;;;;;;6.50;3.27;;;;;;;10.56;100.00;101452.59;1886277;76;26231;-77
2021/01/14 06:29:00;;;;;;;4.73;3.70;;;;;;;10.56;100.00;101455.92;1886171;76;26749;-76
2021/01/14 06:31:29;;;;;;;7.93;3.50;;;;;;;10.60;100.00;101448.72;1886130;76;26283;-76
2021/01/14 06:34:01;;;;;;;5.00;3.70;;;;;;;10.63;100.00;101446.22;1886222;76;26640;-76
2021/01/14 06:36:36;;;;;;;4.03;2.53;;;;;;;10.68;100.00;101446.80;1886222;76;26685;-76
2021/01/14 06:39:12;;;;;;;5.37;3.03;;;;;;;10.72;100.00;101443.21;1885666;76;26267;-77
2021/01/14 06:41:44;;;;;;;6.27;2.80;;;;;;;10.67;100.00;101438.17;1886499;76;26198;-77
2021/01/14 06:44:16;;;;;;;4.70;2.83;;;;;;;10.65;100.00;101436.24;1886255;76;26283;-77
2021/01/14 06:46:47;;;;;;;5.67;2.93;;;;;;;10.71;100.00;101430.97;1886248;76;26275;-77
2021/01/14 06:49:17;;;;;;;6.73;3.00;;;;;;;10.80;100.00;101422.39;1886292;76;26645;-76
2021/01/14 06:51:58;;;;;;;4.13;2.73;;;;;;;10.75;100.00;101427.92;1886195;76;26275;-77
2021/01/14 06:54:29;;;;;;;5.43;3.33;;;;;;;10.72;100.00;101422.38;1886133;76;26233;-76
2021/01/14 06:57:01;;;;;;;6.67;3.03;;;;;;;10.71;100.00;101422.63;1886198;76;26346;-76
2021/01/14 06:59:31;;;;;;;6.07;3.77;;;;;;;10.70;100.00;101420.41;1885209;75;26278;-76
2021/01/14 07:02:20;;;;;;;5.87;3.67;;;;;;;10.73;100.00;101418.49;1886287;76;26657;-76
2021/01/14 07:04:57;;;;;;;5.83;3.13;;;;;;;10.71;100.00;101412.91;1886256;76;26741;-76
2021/01/14 07:07:38;;;;;;;4.93;3.10;;;;;;;10.72;100.00;101409.87;1886086;75;26723;-77
2021/01/14 07:10:10;;;;;;;6.77;3.17;;;;;;;10.79;100.00;101413.22;1885806;75;26279;-77
2021/01/14 07:12:41;;;;;;;4.10;2.77;;;;;;;10.75;100.00;101402.92;1868050;74;26289;-77
2021/01/14 07:15:15;;;;;;;5.77;2.90;;;;;;;10.79;100.00;101403.48;1882861;76;26209;-77
2021/01/14 07:17:46;;;;;;;3.97;2.67;;;;;;;10.79;100.00;101401.27;1886415;76;26197;-77
2021/01/14 07:20:17;;;;;;;5.67;2.97;;;;;;;10.80;100.00;101394.05;1886434;76;26201;-75
2021/01/14 07:22:50;;;;;;;6.27;2.67;;;;;;;10.77;100.00;101395.16;1886455;76;26275;-75
2021/01/14 07:25:21;;;;;;;11.87;3.60;;;;;;;10.68;100.00;101396.24;1886384;76;26741;-75
2021/01/14 07:27:52;;;;;;;5.60;3.33;;;;;;;10.71;100.00;101394.84;1886424;76;26213;-76
2021/01/14 07:30:23;;;;;;;7.53;3.40;;;;;;;10.70;100.00;101389.84;1886356;76;26209;-75
2021/01/14 07:33:04;;;;;;;5.60;3.37;;;;;;;10.76;100.00;101385.98;1886515;76;26210;-75
2021/01/14 07:35:40;;;;;;;8.10;3.70;;;;;;;10.81;100.00;101390.72;1885949;76;26667;-75
2021/01/14 07:38:13;;;;;;;6.10;3.00;;;;;;;10.70;100.00;101389.00;1886368;76;26272;-74
2021/01/14 07:40:45;;;;;;;4.87;3.20;;;;;;;10.78;100.00;101382.94;1886299;76;26782;-74
2021/01/14 07:43:16;;;;;;;6.60;3.30;;;;;;;10.80;100.00;101382.94;1886315;76;26673;-75
2021/01/14 07:45:46;;;;;;;9.00;4.00;;;;;;;10.72;100.00;101375.69;1869895;76;26683;-75
2021/01/14 07:48:23;;;;;;;6.93;4.00;;;;;;;10.77;100.00;101375.16;1886356;76;26754;-74
2021/01/14 07:50:57;;;;;;;5.00;3.50;;;;;;;10.78;100.00;101374.02;1886548;76;26197;-75
2021/01/14 07:53:28;;;;;;;7.17;3.57;;;;;;;10.75;100.00;101368.19;1886303;76;26274;-77
2021/01/14 07:56:19;;;;;;;5.60;3.60;;;;;;;10.79;100.00;101368.75;1886259;76;26215;-76
2021/01/14 07:58:52;;;;;;;6.97;3.73;;;;;;;10.75;100.00;101375.13;1886395;76;26232;-76
2021/01/14 08:01:22;;;;;;;6.27;3.20;;;;;;;10.83;100.00;101360.70;1886471;76;26213;-76
2021/01/14 08:03:52;;;;;;;7.40;3.60;;;;;;;10.78;100.00;101362.91;1886371;76;26283;-76
2021/01/14 08:06:27;;;;;;;6.00;4.23;;;;;;;10.79;100.00;101363.20;1886430;76;26295;-79
2021/01/14 08:09:02;;;;;;;5.20;3.53;;;;;;;10.80;100.00;101360.70;1886412;76;26656;-76
2021/01/14 08:11:33;;;;;;;4.47;3.27;;;;;;;10.71;100.00;101356.78;1886456;76;26685;-76
2021/01/14 08:14:16;;;;;;;7.77;4.13;;;;;;;10.72;100.00;101361.80;1882781;74;26319;-76
2021/01/14 08:16:49;;;;;;;6.40;3.63;;;;;;;10.82;100.00;101360.44;1886481;76;26205;-76
2021/01/14 08:19:44;;;;;;;8.33;4.07;;;;;;;10.79;100.00;101359.03;1886562;76;26696;-75
2021/01/14 08:22:14;;;;;;;6.77;4.80;;;;;;;10.81;100.00;101358.77;1884071;76;26214;-75
2021/01/14 08:24:52;;;;;;;8.53;5.00;;;;;;;10.30;100.00;101368.87;1886244;76;26252;-75
2021/01/14 08:27:29;;;;;;;8.17;5.13;;;;;;;10.03;100.00;101369.81;1886356;76;26197;-76
2021/01/14 08:30:11;;;;;;;6.97;5.30;;;;;;;9.95;100.00;101363.93;1886287;76;26248;-75
2021/01/14 08:32:44;;;;;;;6.93;4.60;;;;;;;9.94;100.00;101367.25;1886424;76;26667;-76
2021/01/14 08:35:24;;;;;;;4.67;4.17;;;;;;;9.88;100.00;101368.89;1886201;76;26286;-75
2021/01/14 08:38:00;;;;;;;5.20;3.70;;;;;;;9.39;100.00;101367.70;1886329;76;26256;-75
2021/01/14 08:40:32;;;;;;;3.97;3.07;;;;;;;9.28;100.00;101374.27;1886274;76;26244;-75
2021/01/14 08:43:05;;;;;;;6.33;3.40;;;;;;;9.11;100.00;101371.59;1886380;76;26278;-75
2021/01/14 08:45:37;;;;;;;4.30;3.30;;;;;;;8.97;100.00;101368.98;1886325;76;26226;-75
2021/01/14 08:48:12;;;;;;;3.43;2.73;;;;;;;8.92;100.00;101375.02;1886505;76;26318;-75
2021/01/14 08:50:50;;;;;;;3.93;3.13;;;;;;;8.88;100.00;101373.32;1886268;76;26206;-75
2021/01/14 08:53:29;;;;;;;3.50;2.87;;;;;;;8.82;100.00;101372.97;1886446;76;26241;-75
2021/01/14 08:56:02;;;;;;;4.30;2.73;;;;;;;8.72;100.00;101381.73;1886278;76;26322;-76
2021/01/14 08:58:42;;;;;;;3.43;2.50;;;;;;;8.75;100.00;101377.05;1886321;76;26276;-76
2021/01/14 09:01:17;;;;;;;5.73;2.77;;;;;;;8.96;100.00;101374.78;1886426;76;26662;-76
2021/01/14 09:03:48;;;;;;;3.80;2.67;;;;;;;8.82;100.00;101379.89;1886491;76;26282;-79
2021/01/14 09:06:20;;;;;;;3.87;2.70;;;;;;;8.59;100.00;101379.66;1886416;76;26656;-77
2021/01/14 09:08:54;;;;;;;3.00;2.60;;;;;;;8.54;100.00;101377.37;1885407;75;26241;-76
2021/01/14 09:11:26;;;;;;;2.93;2.30;;;;;;;8.41;100.00;101377.77;1886371;76;26298;-76
2021/01/14 09:14:04;;;;;;;3.03;2.70;;;;;;;8.37;100.00;101376.06;1882618;74;26330;-76
2021/01/14 09:16:35;;;;;;;4.13;2.80;;;;;;;8.46;100.00;101377.28;1886381;76;26193;-76
2021/01/14 09:19:14;;;;;;;4.40;3.00;;;;;;;8.47;100.00;101377.55;1886455;76;26342;-75
2021/01/14 09:21:44;;;;;;;2.80;2.50;;;;;;;8.40;100.00;101370.00;1886268;76;26275;-82
2021/01/14 09:24:16;;;;;;;3.40;2.97;;;;;;;8.39;100.00;101378.01;1886375;76;26229;-83
2021/01/14 09:26:50;;;;;;;3.07;2.87;;;;;;;8.41;100.00;101373.06;1886285;76;26280;-76
2021/01/14 09:29:22;;;;;;;3.73;3.20;;;;;;;8.37;100.00;101376.61;1886352;76;26671;-77
2021/01/14 09:31:55;;;;;;;3.73;3.30;;;;;;;8.29;100.00;101370.98;1885508;76;26275;-77
2021/01/14 09:34:26;;;;;;;3.60;3.30;;;;;;;8.31;100.00;101375.70;1886292;76;26221;-76
2021/01/14 09:36:57;;;;;;;4.37;3.20;;;;;;;8.19;100.00;101381.33;1886322;76;26271;-78
2021/01/14 09:39:27;;;;;;;3.93;3.63;;;;;;;8.29;100.00;101379.80;1886480;76;26193;-76
2021/01/14 09:41:58;;;;;;;4.10;3.63;;;;;;;8.29;100.00;101381.17;1886292;76;26213;-77
2021/01/14 09:44:30;;;;;;;3.90;3.60;;;;;;;8.15;100.00;101391.23;1886470;76;26209;-77
2021/01/14 09:47:00;;;;;;;4.17;3.73;;;;;;;8.04;100.00;101389.44;1886344;76;26217;-80
2021/01/14 09:49:30;;;;;;;4.57;4.17;;;;;;;7.92;100.00;101391.45;1886387;76;26205;-77
2021/01/14 09:52:01;;;;;;;4.87;4.37;;;;;;;7.94;100.00;101392.05;1886264;76;26700;-81
2021/01/14 09:54:34;;;;;;;5.10;4.60;;;;;;;7.97;100.00;101403.98;1885840;75;26229;-77
2021/01/14 09:57:07;;;;;;;4.77;4.27;;;;;;;8.04;100.00;101397.73;1886413;76;26233;-77
2021/01/14 09:59:40;;;;;;;4.93;4.43;;;;;;;7.93;100.00;101405.58;1886280;76;26286;-77
2021/01/14 10:02:13;;;;;;;5.13;4.37;;;;;;;7.94;100.00;101405.88;1886298;76;26719;-74
2021/01/14 10:04:48;;;;;;;4.87;4.43;;;;;;;8.15;100.00;101402.85;1886351;76;26210;-77
2021/01/14 10:07:20;;;;;;;5.90;4.67;;;;;;;8.02;100.00;101405.98;1886700;76;26656;-78
2021/01/14 10:09:52;;;;;;;5.70;5.20;;;;;;;8.01;100.00;101409.84;1886383;76;26280;-77
2021/01/14 10:12:22;;;;;;;6.77;5.00;;;;;;;8.00;100.00;101417.30;1886414;76;26245;-77
2021/01/14 10:15:07;;;;;;;5.50;5.00;;;;;;;7.98;100.00;101420.88;1868539;75;26760;-77
2021/01/14 10:17:40;;;;;;;5.87;4.93;;;;;;;7.92;100.00;101418.27;1865482;76;26664;-77
2021/01/14 10:20:13;;;;;;;5.60;4.97;;;;;;;8.01;100.00;101425.89;1886287;76;26703;-77
2021/01/14 10:22:48;;;;;;;5.43;4.93;;;;;;;7.91;100.00;101425.76;1886322;76;26625;-76
2021/01/14 10:25:20;;;;;;;7.33;5.50;;;;;;;7.87;100.00;101425.98;1886339;76;26644;-78
2021/01/14 10:28:04;;;;;;;5.77;5.10;;;;;;;7.96;100.00;101426.38;1886225;76;26300;-79
2021/01/14 10:30:40;;;;;;;5.43;4.93;;;;;;;7.91;100.00;101428.52;1886350;76;26694;-80
2021/01/14 10:33:12;;;;;;;5.43;4.93;;;;;;;7.85;100.00;101430.91;1886236;76;26628;-80
2021/01/14 10:35:43;;;;;;;5.57;5.03;;;;;;;7.92;100.00;101427.95;1886193;76;26260;-79
2021/01/14 10:38:14;;;;;;;5.33;4.93;;;;;;;7.93;100.00;101436.55;1886293;76;26213;-79
2021/01/14 10:40:46;;;;;;;4.30;3.90;;;;;;;7.88;100.00;101435.92;1886298;76;26217;-78
2021/01/14 10:43:18;;;;;;;4.50;4.10;;;;;;;7.89;100.00;101432.62;1886237;76;26750;-80
2021/01/14 10:45:51;;;;;;;4.13;3.83;;;;;;;7.96;100.00;101434.68;1884931;75;26217;-79
2021/01/14 10:48:22;;;;;;;4.50;4.10;;;;;;;7.90;100.00;101440.67;1886204;76;26664;-78
2021/01/14 10:50:54;;;;;;;3.97;3.67;;;;;;;7.96;100.00;101441.59;1886246;76;26264;-80
2021/01/14 10:53:30;;;;;;;3.87;3.57;;;;;;;7.83;100.00;101440.56;1886342;76;26647;-78
2021/01/14 10:56:08;;;;;;;4.00;3.70;;;;;;;7.84;100.00;101439.45;1886087;76;26209;-76
2021/01/14 10:58:40;;;;;;;3.63;3.17;;;;;;;7.85;100.00;101441.97;1886453;76;26197;-78
2021/01/14 11:01:19;;;;;;;3.20;2.90;;;;;;;7.87;100.00;101437.04;1889575;76;26209;-76
2021/01/14 11:03:50;;;;;;;3.17;2.97;;;;;;;7.81;100.00;101438.58;1889506;76;26644;-75
2021/01/14 11:06:34;;;;;;;3.17;2.87;;;;;;;7.83;100.00;101439.18;1889554;76;26205;-75
2021/01/14 11:09:07;;;;;;;2.57;2.37;;;;;;;7.87;100.00;101436.20;1889474;76;26278;-75
2021/01/14 11:11:38;;;;;;;2.80;2.60;;;;;;;7.97;100.00;101433.56;1889437;76;26193;-75
2021/01/14 11:14:08;;;;;;;2.60;2.40;;;;;;;7.87;100.00;101443.11;1889266;74;26201;-73
2021/01/14 11:16:38;;;;;;;2.50;2.30;;;;;;;7.78;100.00;101439.39;1887421;73;26793;-76
2021/01/14 11:19:10;;;;;;;2.97;2.47;;;;;;;7.89;100.00;101440.37;1886356;76;26648;-75
2021/01/14 11:21:42;;;;;;;2.77;2.43;;;;;;;8.10;100.00;101445.12;1886633;76;26319;-76
2021/01/14 11:24:14;;;;;;;2.70;2.50;;;;;;;7.96;100.00;101445.17;1886405;76;26310;-75
2021/01/14 11:26:45;;;;;;;1.90;1.80;;;;;;;7.71;100.00;101448.38;1857762;75;26754;-76
2021/01/14 11:29:15;;;;;;;2.20;2.00;;;;;;;7.68;100.00;101450.82;1901525;75;26187;-75
2021/01/14 11:31:45;;;;;;;2.20;2.00;;;;;;;7.67;100.00;101454.66;1916086;75;26269;-75
2021/01/14 11:34:17;;;;;;;2.40;2.30;;;;;;;7.60;100.00;101454.01;1866367;76;26255;-75
2021/01/14 11:36:49;;;;;;;2.70;2.50;;;;;;;7.59;100.00;101460.61;1891241;73;26695;-75
2021/01/14 11:39:20;;;;;;;2.27;2.17;;;;;;;7.53;100.00;101457.49;1859567;77;26776;-74
2021/01/14 11:41:54;;;;;;;2.10;2.00;;;;;;;7.57;100.00;101469.72;1892995;75;26243;-75